Time;durP1;ratioP1;P1;durP2;ratioP2;P2;SDS_P1;SDS_P2;PMS_P1;PMS_P2;Temp;Humidity;BMP_temperature;BMP_pressure;BME280_temperature;BME280_humidity;BME280_pressure;Samples;Min_cycle;Max_cycle;Signal;HPM_P1;HPM_P2
2021/08/20 00:01:47;;;;;;;10.95;4.22;;;;;;;20.66;65.80;100408.22;5030480;28;20483;-71
2021/08/20 00:04:12;;;;;;;7.43;4.47;;;;;;;20.26;66.96;100388.34;5030400;28;20484;-67
2021/08/20 00:06:38;;;;;;;5.05;3.60;;;;;;;20.52;66.97;100443.28;5030427;28;20025;-70
2021/08/20 00:09:03;;;;;;;8.32;4.30;;;;;;;20.44;67.30;100438.97;5030322;28;20523;-70
2021/08/20 00:11:29;;;;;;;9.05;4.15;;;;;;;20.48;66.80;100446.78;4978276;28;20048;-72
2021/08/20 00:13:55;;;;;;;9.55;4.10;;;;;;;20.28;67.94;100443.38;5030061;28;20056;-70
2021/08/20 00:16:20;;;;;;;10.30;3.72;;;;;;;20.03;68.01;100405.00;5030755;28;20087;-70
2021/08/20 00:18:46;;;;;;;7.30;4.13;;;;;;;19.92;69.49;100412.03;5030471;28;20056;-70
2021/08/20 00:21:11;;;;;;;9.00;4.05;;;;;;;19.99;69.76;100415.53;5024898;28;20036;-73
2021/08/20 00:23:37;;;;;;;10.15;4.68;;;;;;;19.99;70.49;100447.81;5028806;28;20096;-69
2021/08/20 00:26:03;;;;;;;7.03;3.97;;;;;;;19.73;71.21;100408.53;5031991;28;20036;-73
2021/08/20 00:28:29;;;;;;;6.95;4.35;;;;;;;19.56;71.50;100398.97;5028879;28;20060;-70
2021/08/20 00:30:55;;;;;;;9.25;4.00;;;;;;;19.76;71.63;100428.63;5031653;28;20069;-69
2021/08/20 00:33:20;;;;;;;8.90;4.32;;;;;;;19.86;71.26;100454.84;5031288;28;20060;-72
2021/08/20 00:35:46;;;;;;;4.40;3.65;;;;;;;19.86;71.48;100452.22;5029866;28;20109;-72
2021/08/20 00:38:11;;;;;;;6.32;4.07;;;;;;;19.79;71.42;100444.31;5031855;28;20071;-69
2021/08/20 00:40:38;;;;;;;9.77;4.30;;;;;;;19.66;71.75;100449.56;5014570;28;20030;-70
2021/08/20 00:43:05;;;;;;;6.53;3.90;;;;;;;19.74;70.75;100449.59;5021631;28;20080;-68
2021/08/20 00:45:31;;;;;;;6.85;3.97;;;;;;;19.54;71.44;100447.84;5033749;28;20156;-69
2021/08/20 00:47:56;;;;;;;6.90;3.85;;;;;;;19.65;70.74;100444.34;5033709;28;20526;-69
2021/08/20 00:50:22;;;;;;;6.03;4.57;;;;;;;19.77;70.50;100457.44;5033681;28;20044;-68
2021/08/20 00:52:47;;;;;;;6.00;3.80;;;;;;;19.63;70.58;100440.88;5027198;28;20033;-67
2021/08/20 00:55:14;;;;;;;5.63;3.88;;;;;;;19.69;70.23;100448.72;5033358;28;20548;-68
2021/08/20 00:57:42;;;;;;;6.88;4.30;;;;;;;19.77;70.42;100457.44;5032448;28;20037;-65
2021/08/20 01:00:09;;;;;;;6.13;4.28;;;;;;;19.68;70.87;100450.44;5019127;28;20033;-69
2021/08/20 01:02:34;;;;;;;8.32;4.30;;;;;;;19.38;71.39;100409.47;5033336;28;20495;-72
2021/08/20 01:05:00;;;;;;;6.53;4.60;;;;;;;19.60;71.41;100435.63;5033423;28;20036;-69
2021/08/20 01:07:25;;;;;;;7.18;4.28;;;;;;;19.61;72.27;100440.84;5016831;28;20496;-71
2021/08/20 01:09:51;;;;;;;6.13;4.18;;;;;;;19.79;71.76;100442.59;5013448;28;20033;-74
2021/08/20 01:12:16;;;;;;;9.48;4.38;;;;;;;19.76;71.45;100447.81;5029542;28;20041;-70
2021/08/20 01:14:42;;;;;;;7.38;4.40;;;;;;;19.69;71.46;100449.59;5032879;28;20108;-68
2021/08/20 01:17:09;;;;;;;7.53;4.78;;;;;;;19.58;71.72;100442.59;5032566;28;20119;-67
2021/08/20 01:19:36;;;;;;;7.18;4.13;;;;;;;19.56;71.64;100440.88;5020909;28;20041;-66
2021/08/20 01:22:05;;;;;;;12.75;4.28;;;;;;;19.71;70.67;100450.47;5020960;28;20096;-67
2021/08/20 01:24:30;;;;;;;7.57;4.05;;;;;;;19.62;70.60;100431.25;5026014;28;20038;-67
2021/08/20 01:26:56;;;;;;;7.18;4.45;;;;;;;19.73;70.47;100435.59;5022513;28;20088;-67
2021/08/20 01:29:23;;;;;;;8.40;4.53;;;;;;;19.71;70.01;100424.28;5024365;28;20029;-67
2021/08/20 01:31:49;;;;;;;6.38;4.25;;;;;;;19.39;70.92;100398.13;5024229;28;20419;-70
2021/08/20 01:34:15;;;;;;;6.72;4.72;;;;;;;19.66;70.38;100443.47;5022330;28;20034;-65
2021/08/20 01:36:40;;;;;;;8.07;4.40;;;;;;;19.66;70.32;100446.09;5026326;28;20059;-69
2021/08/20 01:39:06;;;;;;;8.07;4.60;;;;;;;19.66;70.30;100449.56;5020666;28;20038;-65
2021/08/20 01:41:33;;;;;;;5.53;4.32;;;;;;;19.53;70.22;100435.63;5015185;28;20030;-67
2021/08/20 01:43:59;;;;;;;6.32;4.30;;;;;;;19.61;70.51;100448.72;5021404;28;20113;-67
2021/08/20 01:46:25;;;;;;;5.80;3.85;;;;;;;19.49;70.75;100454.84;5023992;28;20152;-66
2021/08/20 01:48:55;;;;;;;6.13;4.53;;;;;;;19.50;70.86;100450.47;5023557;28;20095;-67
2021/08/20 01:51:22;;;;;;;9.93;4.68;;;;;;;19.37;71.11;100444.34;5011946;28;20037;-69
2021/08/20 01:53:48;;;;;;;6.78;4.45;;;;;;;19.40;71.17;100450.47;5024861;28;20446;-68
2021/08/20 01:56:18;;;;;;;10.73;4.53;;;;;;;19.26;71.00;100441.72;5021028;28;20034;-67
2021/08/20 01:58:51;;;;;;;5.68;4.07;;;;;;;19.37;70.55;100439.13;5018882;28;20129;-66
2021/08/20 02:01:17;;;;;;;7.00;4.57;;;;;;;19.46;70.84;100446.09;5013140;28;20403;-66
2021/08/20 02:03:43;;;;;;;6.18;4.28;;;;;;;19.31;71.42;100433.88;5013109;28;20030;-65
2021/08/20 02:06:08;;;;;;;6.65;4.15;;;;;;;19.34;71.31;100454.81;5012907;28;20029;-68
2021/08/20 02:08:34;;;;;;;10.60;4.38;;;;;;;19.19;72.16;100451.34;5017708;28;20044;-67
2021/08/20 02:10:59;;;;;;;8.60;4.35;;;;;;;19.39;71.20;100446.09;5017876;28;20041;-67
2021/08/20 02:13:26;;;;;;;7.22;4.70;;;;;;;19.10;71.01;100412.06;5019001;28;20037;-71
2021/08/20 02:15:51;;;;;;;6.15;4.55;;;;;;;19.28;70.91;100431.25;5016893;28;20084;-70
2021/08/20 02:18:18;;;;;;;5.88;4.32;;;;;;;19.44;70.72;100453.06;5020758;28;20080;-68
2021/08/20 02:20:44;;;;;;;8.32;4.50;;;;;;;19.55;70.60;100460.06;5015907;28;20033;-68
2021/08/20 02:23:11;;;;;;;7.18;4.88;;;;;;;19.64;70.29;100450.44;5030064;28;20116;-67
2021/08/20 02:25:36;;;;;;;6.25;4.60;;;;;;;19.67;70.05;100450.47;5032615;28;20104;-67
2021/08/20 02:28:02;;;;;;;10.32;4.80;;;;;;;19.82;69.61;100455.66;5033068;28;20195;-68
2021/08/20 02:30:28;;;;;;;8.27;4.57;;;;;;;19.74;68.42;100405.06;5032617;28;20037;-70
2021/08/20 02:32:54;;;;;;;6.50;4.50;;;;;;;20.08;68.11;100448.69;5032564;28;20026;-68
2021/08/20 02:35:19;;;;;;;8.75;4.63;;;;;;;20.08;67.94;100452.16;5032579;28;20038;-68
2021/08/20 02:37:45;;;;;;;6.35;4.63;;;;;;;19.85;68.81;100460.06;5032640;28;20037;-69
2021/08/20 02:40:11;;;;;;;7.13;4.80;;;;;;;19.62;69.77;100454.84;5031917;28;20048;-70
2021/08/20 02:42:36;;;;;;;7.43;4.47;;;;;;;19.65;69.54;100453.09;5032513;28;20579;-71
2021/08/20 02:45:02;;;;;;;7.10;4.40;;;;;;;19.85;69.16;100466.19;5032406;28;20049;-70
2021/08/20 02:47:28;;;;;;;7.35;4.40;;;;;;;19.97;68.39;100459.19;5032287;28;20065;-68
2021/08/20 02:49:53;;;;;;;7.53;4.80;;;;;;;20.02;67.89;100457.41;5032188;28;20080;-69
2021/08/20 02:52:19;;;;;;;7.88;5.18;;;;;;;20.11;67.79;100467.91;5032495;28;20039;-69
2021/08/20 02:54:44;;;;;;;5.28;3.92;;;;;;;20.22;67.75;100465.22;5032352;28;20060;-68
2021/08/20 02:57:10;;;;;;;7.88;4.60;;;;;;;20.35;67.13;100464.31;5031991;28;20037;-69
2021/08/20 02:59:35;;;;;;;7.63;4.57;;;;;;;20.39;66.46;100459.06;5032012;28;20033;-69
2021/08/20 03:02:01;;;;;;;7.40;4.82;;;;;;;20.20;66.74;100444.28;5031623;28;20040;-73
2021/08/20 03:04:26;;;;;;;15.23;5.03;;;;;;;20.24;66.84;100471.34;5032055;28;20514;-69
2021/08/20 03:06:52;;;;;;;8.02;4.32;;;;;;;20.11;67.36;100473.16;5032289;28;20037;-70
2021/08/20 03:09:20;;;;;;;9.32;4.47;;;;;;;20.20;67.04;100474.88;5032048;28;20034;-68
2021/08/20 03:11:47;;;;;;;8.43;5.00;;;;;;;20.15;66.17;100448.66;5031731;28;20037;-69
2021/08/20 03:14:13;;;;;;;6.95;4.68;;;;;;;20.30;66.62;100468.72;5031822;28;20041;-69
2021/08/20 03:16:38;;;;;;;10.10;4.43;;;;;;;20.27;66.53;100478.34;5031680;28;20419;-69
2021/08/20 03:19:04;;;;;;;7.78;4.68;;;;;;;20.09;66.77;100459.16;4997057;28;20393;-69
2021/08/20 03:21:29;;;;;;;8.68;4.65;;;;;;;20.12;67.06;100472.25;5032044;28;20038;-69
2021/08/20 03:23:56;;;;;;;13.63;4.53;;;;;;;19.69;68.40;100469.69;5031918;28;20472;-69
2021/08/20 03:26:22;;;;;;;12.07;4.80;;;;;;;19.55;69.36;100473.16;5031723;28;20040;-69
2021/08/20 03:28:49;;;;;;;10.82;5.47;;;;;;;19.20;70.65;100484.50;5031661;28;20132;-69
2021/08/20 03:31:14;;;;;;;12.77;4.60;;;;;;;19.13;71.12;100487.97;5031521;28;20038;-69
2021/08/20 03:33:40;;;;;;;10.02;4.90;;;;;;;19.28;70.49;100494.06;5031462;28;20096;-69
2021/08/20 03:36:05;;;;;;;9.63;5.18;;;;;;;19.27;70.21;100503.69;5031890;28;20039;-69
2021/08/20 03:38:31;;;;;;;10.13;4.85;;;;;;;19.32;70.28;100499.31;5031516;28;20037;-69
2021/08/20 03:40:56;;;;;;;8.95;4.68;;;;;;;19.34;70.34;100496.69;5031711;28;20104;-67
2021/08/20 03:43:22;;;;;;;9.20;5.20;;;;;;;19.30;70.04;100498.47;5031474;28;20045;-69
2021/08/20 03:45:47;;;;;;;11.18;4.90;;;;;;;19.36;69.80;100508.06;5031670;28;20136;-69
2021/08/20 03:48:13;;;;;;;14.05;5.10;;;;;;;19.28;70.00;100509.78;5031539;28;20407;-70
2021/08/20 03:50:38;;;;;;;12.05;5.30;;;;;;;18.93;70.96;100506.22;5031557;28;20037;-73
2021/08/20 03:53:04;;;;;;;8.45;4.90;;;;;;;18.96;71.61;100507.97;5031490;28;20389;-67
2021/08/20 03:55:29;;;;;;;9.63;4.93;;;;;;;18.83;71.69;100513.13;5031377;28;20044;-69
2021/08/20 03:57:54;;;;;;;11.35;5.80;;;;;;;18.74;71.80;100507.84;5031287;28;20026;-69
2021/08/20 04:00:20;;;;;;;19.35;6.53;;;;;;;18.55;72.90;100518.22;5031551;28;20611;-69
2021/08/20 04:02:46;;;;;;;9.07;5.20;;;;;;;18.24;73.35;100486.72;5031159;28;20123;-69
2021/08/20 04:05:11;;;;;;;12.23;5.80;;;;;;;18.53;73.18;100524.31;5031087;28;20176;-69
2021/08/20 04:07:37;;;;;;;13.52;6.28;;;;;;;18.36;74.23;100519.88;5031249;28;20033;-69
2021/08/20 04:10:03;;;;;;;11.10;5.65;;;;;;;18.02;75.21;100526.63;5031297;28;20045;-69
2021/08/20 04:12:28;;;;;;;9.90;5.40;;;;;;;17.81;77.14;100522.06;4997254;28;20088;-69
2021/08/20 04:14:54;;;;;;;10.30;5.70;;;;;;;17.95;76.20;100523.97;5031024;28;20033;-67
2021/08/20 04:17:19;;;;;;;10.98;6.18;;;;;;;17.74;75.90;100477.63;5031139;28;20084;-69
2021/08/20 04:19:45;;;;;;;8.05;5.93;;;;;;;17.93;74.79;100483.88;5030883;28;20037;-69
2021/08/20 04:22:10;;;;;;;9.98;5.70;;;;;;;18.27;74.38;100520.69;5031080;28;20034;-67
2021/08/20 04:24:36;;;;;;;11.35;5.68;;;;;;;18.35;74.39;100531.19;5031027;28;20415;-67
2021/08/20 04:27:01;;;;;;;9.25;5.30;;;;;;;18.32;74.70;100525.06;5031141;28;20412;-69
2021/08/20 04:29:27;;;;;;;10.85;5.55;;;;;;;18.47;74.57;100521.66;5031063;28;20037;-69
2021/08/20 04:31:52;;;;;;;6.95;5.53;;;;;;;18.53;74.56;100533.06;5030892;28;20045;-69
2021/08/20 04:34:18;;;;;;;8.30;5.35;;;;;;;18.51;75.44;100528.69;5031080;28;20479;-69
2021/08/20 04:36:43;;;;;;;7.65;5.53;;;;;;;18.46;75.42;100519.94;5031318;28;20120;-69
2021/08/20 04:39:09;;;;;;;8.68;5.88;;;;;;;18.68;74.72;100528.75;5031143;28;20119;-69
2021/08/20 04:41:34;;;;;;;9.40;5.90;;;;;;;18.76;74.23;100534.91;5013581;28;20439;-69
2021/08/20 04:44:00;;;;;;;10.23;6.57;;;;;;;18.89;73.89;100522.72;5030853;28;20039;-69
2021/08/20 04:46:25;;;;;;;8.50;6.18;;;;;;;19.08;73.33;100528.94;5031244;28;20136;-69
2021/08/20 04:48:51;;;;;;;8.82;6.10;;;;;;;19.18;73.03;100533.31;4995765;28;20116;-69
2021/08/20 04:51:16;;;;;;;8.30;6.07;;;;;;;19.26;73.50;100535.94;5030872;28;20215;-69
2021/08/20 04:53:42;;;;;;;8.25;6.35;;;;;;;19.33;73.70;100536.84;5026015;28;20030;-68
2021/08/20 04:56:07;;;;;;;10.30;6.88;;;;;;;19.39;74.18;100539.50;5011228;28;20503;-69
2021/08/20 04:58:35;;;;;;;9.55;6.50;;;;;;;19.35;73.93;100540.34;4976428;28;20109;-68
2021/08/20 05:01:00;;;;;;;10.00;6.22;;;;;;;19.36;75.10;100537.72;5010983;28;20510;-69
2021/08/20 05:03:26;;;;;;;9.38;6.47;;;;;;;19.43;74.85;100549.09;5013222;28;20029;-69
2021/08/20 05:05:52;;;;;;;11.95;6.47;;;;;;;19.50;73.67;100548.22;5014729;28;20124;-69
2021/08/20 05:08:17;;;;;;;10.73;6.07;;;;;;;19.58;73.45;100543.00;5014480;28;20484;-69
2021/08/20 05:10:43;;;;;;;8.02;6.40;;;;;;;19.60;74.21;100546.50;5014584;28;20454;-69
2021/08/20 05:13:08;;;;;;;12.02;6.80;;;;;;;19.54;73.59;100546.50;5014573;28;20079;-68
2021/08/20 05:15:34;;;;;;;11.35;6.60;;;;;;;19.55;73.69;100532.50;5014151;28;20038;-68
2021/08/20 05:18:01;;;;;;;16.30;7.70;;;;;;;19.63;74.01;100537.78;5028821;28;20049;-69
2021/08/20 05:20:27;;;;;;;20.98;7.70;;;;;;;19.52;73.79;100522.91;5034481;28;20581;-69
2021/08/20 05:22:54;;;;;;;26.60;9.00;;;;;;;19.68;73.54;100531.66;5033870;28;20038;-69
2021/08/20 05:25:25;;;;;;;17.42;7.38;;;;;;;19.60;73.73;100495.84;5033111;28;20052;-70
2021/08/20 05:27:52;;;;;;;12.75;6.63;;;;;;;19.92;74.50;100532.56;5019974;28;20041;-69
2021/08/20 05:30:18;;;;;;;12.57;6.10;;;;;;;20.01;73.20;100537.81;5023465;28;20057;-69
2021/08/20 05:32:44;;;;;;;8.68;5.75;;;;;;;19.79;72.73;100499.34;5023885;28;20034;-70
2021/08/20 05:35:11;;;;;;;13.98;6.60;;;;;;;20.16;72.22;100534.28;5022336;28;20494;-70
2021/08/20 05:37:37;;;;;;;11.80;6.35;;;;;;;20.23;71.75;100539.53;5023893;28;20034;-69
2021/08/20 05:40:04;;;;;;;10.15;5.90;;;;;;;20.13;71.90;100544.75;5023510;28;20030;-70
2021/08/20 05:42:31;;;;;;;10.15;5.80;;;;;;;20.14;70.17;100536.03;4973944;28;20466;-69
2021/08/20 05:44:56;;;;;;;8.18;4.95;;;;;;;20.19;70.69;100533.41;5023428;28;20073;-69
2021/08/20 05:47:23;;;;;;;7.22;5.05;;;;;;;20.24;69.13;100510.69;5022792;28;20073;-68
2021/08/20 05:49:49;;;;;;;6.53;5.00;;;;;;;20.53;68.49;100543.81;5007134;28;20095;-69
2021/08/20 05:52:14;;;;;;;9.48;5.53;;;;;;;20.48;69.92;100546.44;4981704;28;20045;-69
2021/08/20 05:54:40;;;;;;;12.77;6.00;;;;;;;20.41;69.38;100541.22;5020815;28;20503;-70
2021/08/20 05:57:05;;;;;;;9.00;5.38;;;;;;;20.57;68.62;100531.56;5019343;28;20025;-70
2021/08/20 05:59:31;;;;;;;8.15;6.00;;;;;;;20.75;68.34;100546.38;5021679;28;20042;-72
2021/08/20 06:01:56;;;;;;;9.25;5.97;;;;;;;20.76;67.99;100535.00;5021399;28;20030;-71
2021/08/20 06:04:22;;;;;;;13.18;6.53;;;;;;;20.44;68.75;100509.75;5019035;28;20099;-69
2021/08/20 06:06:47;;;;;;;11.23;6.32;;;;;;;20.76;68.00;100541.16;5022333;28;20033;-72
2021/08/20 06:09:13;;;;;;;8.55;6.60;;;;;;;20.93;67.84;100540.19;5027608;28;20040;-70
2021/08/20 06:11:38;;;;;;;12.77;5.38;;;;;;;21.13;67.41;100548.84;5014909;28;20067;-74
2021/08/20 06:14:04;;;;;;;7.97;5.38;;;;;;;21.16;66.74;100543.56;5032786;28;20037;-70
2021/08/20 06:16:29;;;;;;;7.72;5.55;;;;;;;21.00;65.36;100550.66;5019791;28;20049;-70
2021/08/20 06:18:55;;;;;;;7.15;5.35;;;;;;;20.71;65.34;100500.94;5019627;28;20080;-67
2021/08/20 06:21:20;;;;;;;9.10;4.90;;;;;;;20.94;65.55;100545.44;5026270;28;20072;-67
2021/08/20 06:23:46;;;;;;;6.57;4.82;;;;;;;20.72;64.35;100509.69;5018720;28;20067;-70
2021/08/20 06:26:12;;;;;;;8.48;4.70;;;;;;;21.13;64.68;100535.72;5017719;28;20034;-74
2021/08/20 06:28:37;;;;;;;8.45;4.82;;;;;;;21.15;66.82;100556.72;5012675;28;20116;-66
2021/08/20 06:31:04;;;;;;;9.45;5.85;;;;;;;21.32;68.34;100552.25;5012932;28;20474;-70
2021/08/20 06:33:34;;;;;;;10.35;5.05;;;;;;;21.33;65.99;100554.00;5012660;28;20192;-66
2021/08/20 06:36:00;;;;;;;9.00;4.97;;;;;;;21.50;64.72;100545.97;5020595;28;20407;-69
2021/08/20 06:38:25;;;;;;;10.80;4.78;;;;;;;21.79;63.88;100552.81;5027412;28;20033;-73
2021/08/20 06:40:51;;;;;;;8.77;4.25;;;;;;;22.02;61.69;100548.22;5018032;28;20028;-71
2021/08/20 06:43:17;;;;;;;8.32;4.63;;;;;;;21.97;63.65;100561.44;5022920;28;20517;-70
2021/08/20 06:45:42;;;;;;;9.55;4.43;;;;;;;21.85;62.73;100524.75;5022955;28;20128;-70
2021/08/20 06:48:08;;;;;;;8.77;5.38;;;;;;;22.26;62.75;100555.88;4978934;28;20125;-70
2021/08/20 06:50:33;;;;;;;7.85;4.22;;;;;;;22.23;63.64;100562.94;5021713;28;20071;-69
2021/08/20 06:52:59;;;;;;;7.32;4.38;;;;;;;22.09;63.30;100561.34;5022738;28;20042;-72
2021/08/20 06:55:24;;;;;;;11.93;5.03;;;;;;;22.18;62.09;100522.66;5013245;28;20141;-69
2021/08/20 06:57:50;;;;;;;8.98;4.30;;;;;;;22.52;63.43;100556.53;5012114;28;20041;-68
2021/08/20 07:00:16;;;;;;;8.38;3.65;;;;;;;22.62;61.21;100555.56;5012263;28;20041;-68
2021/08/20 07:02:46;;;;;;;5.43;3.97;;;;;;;22.88;59.59;100549.97;5012403;28;20061;-68
2021/08/20 07:05:13;;;;;;;5.88;3.92;;;;;;;23.01;59.20;100562.97;5012094;28;20037;-68
2021/08/20 07:07:40;;;;;;;8.20;4.03;;;;;;;22.97;58.91;100558.63;5012127;28;20088;-68
2021/08/20 07:10:10;;;;;;;6.47;4.50;;;;;;;23.03;58.38;100558.53;5012075;28;20507;-67
2021/08/20 07:12:36;;;;;;;9.50;4.57;;;;;;;23.08;58.43;100548.84;5011912;28;20100;-72
2021/08/20 07:15:06;;;;;;;8.57;4.45;;;;;;;23.12;58.99;100555.81;5012194;28;20548;-70
2021/08/20 07:17:33;;;;;;;11.82;4.40;;;;;;;23.16;59.75;100540.88;5012377;28;20037;-69
2021/08/20 07:19:58;;;;;;;10.70;4.55;;;;;;;23.34;58.35;100545.88;5012026;28;20073;-67
2021/08/20 07:22:24;;;;;;;12.90;4.20;;;;;;;23.25;57.94;100552.16;4961047;28;20069;-69
2021/08/20 07:24:50;;;;;;;7.38;4.40;;;;;;;23.38;57.62;100560.72;5011329;28;20034;-70
2021/08/20 07:27:15;;;;;;;9.25;4.03;;;;;;;23.52;57.32;100564.94;5011999;28;20037;-69
2021/08/20 07:29:41;;;;;;;9.35;4.35;;;;;;;23.38;58.94;100563.38;5011954;28;20404;-67
2021/08/20 07:32:07;;;;;;;8.82;4.50;;;;;;;23.37;58.05;100551.06;5011686;28;20507;-68
2021/08/20 07:34:32;;;;;;;9.73;4.50;;;;;;;23.53;58.12;100566.69;5011849;28;20066;-69
2021/08/20 07:36:58;;;;;;;12.88;4.40;;;;;;;23.74;56.35;100547.03;5011417;28;20064;-67
2021/08/20 07:39:26;;;;;;;12.13;4.75;;;;;;;24.06;54.82;100561.44;5011832;28;20173;-68
2021/08/20 07:41:52;;;;;;;13.23;4.53;;;;;;;24.26;54.15;100558.44;5011943;28;20052;-69
2021/08/20 07:44:18;;;;;;;18.02;5.50;;;;;;;24.40;51.59;100550.28;5011843;28;20042;-68
2021/08/20 07:46:43;;;;;;;21.15;6.32;;;;;;;24.21;51.06;100549.75;5011699;28;20423;-70
2021/08/20 07:49:09;;;;;;;15.98;5.97;;;;;;;24.01;54.03;100507.91;5011597;28;20025;-70
2021/08/20 07:51:37;;;;;;;24.23;7.35;;;;;;;24.50;52.20;100543.91;5011633;28;20042;-71
2021/08/20 07:54:03;;;;;;;18.73;6.40;;;;;;;24.56;52.22;100540.28;5011524;28;20030;-70
2021/08/20 07:56:28;;;;;;;16.80;5.68;;;;;;;24.54;53.50;100518.34;5011544;28;20060;-69
2021/08/20 07:58:54;;;;;;;26.02;6.05;;;;;;;24.89;52.63;100537.03;5011509;28;20488;-70
2021/08/20 08:01:19;;;;;;;22.10;6.70;;;;;;;24.94;50.72;100524.59;5011394;28;20412;-70
2021/08/20 08:03:45;;;;;;;18.33;5.82;;;;;;;25.17;49.26;100543.44;5011543;28;20412;-70
2021/08/20 08:06:13;;;;;;;14.68;5.22;;;;;;;24.94;45.67;100537.78;5011407;28;20034;-69
2021/08/20 08:08:40;;;;;;;16.52;5.88;;;;;;;25.23;47.87;100538.91;5011197;28;20131;-68
2021/08/20 08:11:06;;;;;;;20.70;6.20;;;;;;;25.36;46.60;100540.38;5011265;28;20052;-68
2021/08/20 08:13:32;;;;;;;16.63;5.30;;;;;;;25.24;46.08;100541.50;5010196;28;20511;-70
2021/08/20 08:15:58;;;;;;;17.35;5.57;;;;;;;25.37;47.00;100541.25;5011349;28;20060;-68
2021/08/20 08:18:24;;;;;;;15.13;5.18;;;;;;;25.31;46.79;100545.75;5004729;28;20042;-72
2021/08/20 08:20:49;;;;;;;14.05;5.32;;;;;;;25.42;46.57;100539.38;5011298;28;20049;-71
2021/08/20 08:23:15;;;;;;;15.07;4.97;;;;;;;25.62;45.65;100539.78;4993449;28;20045;-70
2021/08/20 08:25:40;;;;;;;18.08;4.95;;;;;;;25.67;45.95;100537.00;5021377;28;20041;-71
2021/08/20 08:28:06;;;;;;;15.25;5.22;;;;;;;25.80;46.18;100537.59;5013217;28;20042;-70
2021/08/20 08:30:39;;;;;;;18.77;5.78;;;;;;;25.87;44.97;100533.88;5030825;28;20399;-71
2021/08/20 08:33:07;;;;;;;19.27;6.03;;;;;;;25.86;44.65;100540.06;5031041;28;20112;-70
2021/08/20 08:35:33;;;;;;;13.38;5.18;;;;;;;25.91;43.57;100501.16;5030638;28;20044;-72
2021/08/20 08:38:06;;;;;;;9.00;4.35;;;;;;;25.95;44.54;100534.53;5032778;28;20033;-71
2021/08/20 08:40:33;;;;;;;13.38;4.47;;;;;;;25.90;45.28;100536.44;5034655;28;20036;-71
2021/08/20 08:42:59;;;;;;;10.10;4.43;;;;;;;26.17;45.21;100528.72;5034627;28;20168;-70
2021/08/20 08:45:25;;;;;;;21.73;5.15;;;;;;;26.49;44.70;100532.22;5034931;28;20057;-70
2021/08/20 08:47:54;;;;;;;13.35;4.18;;;;;;;26.64;43.12;100529.16;5034429;28;20044;-69
2021/08/20 08:50:20;;;;;;;16.95;4.38;;;;;;;26.84;44.52;100533.03;5034244;28;20034;-69
2021/08/20 08:52:46;;;;;;;12.90;4.78;;;;;;;26.91;42.93;100531.06;5027691;28;20500;-71
2021/08/20 08:55:12;;;;;;;13.30;4.28;;;;;;;27.06;42.68;100530.59;5025143;28;20091;-71
2021/08/20 08:57:38;;;;;;;10.88;4.47;;;;;;;27.03;42.87;100505.97;5023458;28;20029;-70
2021/08/20 09:00:05;;;;;;;10.90;4.53;;;;;;;27.27;41.97;100531.72;5023727;28;20033;-70
2021/08/20 09:02:32;;;;;;;8.00;4.10;;;;;;;27.26;42.23;100522.00;5025049;28;20041;-69
2021/08/20 09:04:59;;;;;;;8.02;3.40;;;;;;;27.10;42.09;100521.66;5023256;28;20033;-68
2021/08/20 09:07:25;;;;;;;11.57;4.10;;;;;;;27.40;40.11;100526.03;5023703;28;20037;-69
2021/08/20 09:10:19;;;;;;;14.40;3.92;;;;;;;27.25;42.27;100522.06;5019200;28;20129;-70
2021/08/20 09:12:55;;;;;;;12.68;3.90;;;;;;;27.35;43.55;100522.66;5024506;28;20185;-71
2021/08/20 09:15:25;;;;;;;12.10;4.90;;;;;;;27.42;43.67;100513.63;5017603;28;20183;-71
2021/08/20 09:17:58;;;;;;;14.25;4.20;;;;;;;27.56;40.17;100511.38;5019419;28;20083;-74
2021/08/20 09:20:27;;;;;;;9.98;3.92;;;;;;;27.52;39.23;100508.88;5026314;28;20128;-74
2021/08/20 09:22:56;;;;;;;11.43;4.20;;;;;;;27.76;38.31;100500.09;5029516;28;20124;-75
2021/08/20 09:25:31;;;;;;;;;;;;;;;27.54;37.89;100507.91;5025948;28;20292;-75
2021/08/20 09:28:15;;;;;;;12.40;3.72;;;;;;;27.55;38.83;100504.34;5010089;28;19913;-72
2021/08/20 09:30:57;;;;;;;8.73;3.83;;;;;;;27.24;37.25;100492.06;5016765;28;20128;-72
2021/08/20 09:33:31;;;;;;;4.60;3.10;;;;;;;27.50;35.00;100468.28;5015337;28;21288;-71
2021/08/20 09:36:08;;;;;;;11.73;3.88;;;;;;;28.07;38.03;100500.84;5015058;28;20091;-75
2021/08/20 09:38:36;;;;;;;6.80;3.38;;;;;;;28.07;36.58;100484.91;5027178;28;20085;-70
2021/08/20 09:41:25;;;;;;;5.63;2.72;;;;;;;28.33;34.46;100494.59;5031997;28;20036;-68
2021/08/20 09:43:56;;;;;;;6.63;3.50;;;;;;;28.27;36.86;100496.63;5026129;28;20053;-70
2021/08/20 09:46:23;;;;;;;10.00;3.38;;;;;;;28.28;34.10;100474.47;4989291;28;20508;-70
2021/08/20 09:49:02;;;;;;;11.07;3.60;;;;;;;28.73;35.01;100492.25;5010849;28;20068;-71
2021/08/20 09:51:31;;;;;;;7.93;2.97;;;;;;;28.94;35.88;100503.84;5031331;28;20045;-73
2021/08/20 09:53:59;;;;;;;7.35;3.38;;;;;;;29.19;32.70;100500.22;5023023;28;20030;-76
2021/08/20 09:56:29;;;;;;;7.28;2.70;;;;;;;29.36;31.44;100503.09;5028843;28;20045;-74
2021/08/20 09:58:58;;;;;;;4.90;2.53;;;;;;;29.49;31.06;100495.44;5024062;28;20029;-72
2021/08/20 10:01:24;;;;;;;;;;;;;;;29.41;30.20;100492.25;5026867;28;20129;-68
2021/08/20 10:03:50;;;;;;;7.70;2.58;;;;;;;29.26;30.73;100484.88;5029259;28;20361;-68
2021/08/20 10:06:18;;;;;;;3.30;2.50;;;;;;;29.44;29.67;100485.94;5024707;28;20045;-74
2021/08/20 10:08:44;;;;;;;4.47;2.70;;;;;;;29.36;31.29;100441.06;5029625;28;20113;-76
2021/08/20 10:11:11;;;;;;;5.18;2.70;;;;;;;29.58;31.69;100480.03;5023205;28;20136;-74
2021/08/20 10:13:36;;;;;;;5.75;2.40;;;;;;;29.24;30.48;100476.97;5030189;28;20034;-73
2021/08/20 10:16:03;;;;;;;4.32;2.45;;;;;;;29.58;30.81;100474.72;5030816;28;20506;-74
2021/08/20 10:18:30;;;;;;;6.72;3.08;;;;;;;29.77;29.90;100462.38;5027450;28;20538;-72
2021/08/20 10:20:58;;;;;;;5.35;3.03;;;;;;;29.88;31.36;100467.19;5005783;28;20048;-72
2021/08/20 10:23:24;;;;;;;7.10;3.25;;;;;;;30.16;30.26;100460.69;5005656;28;20399;-73
2021/08/20 10:25:54;;;;;;;5.18;2.72;;;;;;;30.31;28.77;100446.69;5031875;28;20068;-75
2021/08/20 10:28:20;;;;;;;3.97;2.25;;;;;;;30.60;28.52;100459.63;5023875;28;20042;-73
2021/08/20 10:30:47;;;;;;;4.35;2.45;;;;;;;30.48;27.50;100455.66;5017073;28;20507;-76
2021/08/20 10:33:13;;;;;;;3.13;2.22;;;;;;;30.37;27.96;100455.31;5020801;28;20499;-77
2021/08/20 10:35:55;;;;;;;4.45;2.47;;;;;;;30.34;28.28;100462.53;5016637;28;20044;-77
2021/08/20 10:38:39;;;;;;;4.75;2.78;;;;;;;30.55;29.16;100457.16;5021498;28;20030;-71
2021/08/20 10:41:19;;;;;;;6.95;2.50;;;;;;;30.77;28.07;100449.00;5022928;28;20033;-78
2021/08/20 10:44:06;;;;;;;5.10;2.55;;;;;;;30.51;27.46;100431.59;5029429;28;20491;-78
2021/08/20 10:46:34;;;;;;;4.93;2.42;;;;;;;30.46;29.73;100460.22;4983539;28;20081;-74
2021/08/20 10:49:12;;;;;;;3.05;2.17;;;;;;;30.15;27.30;100445.66;5020795;28;20041;-79
2021/08/20 10:51:53;;;;;;;3.72;2.20;;;;;;;29.73;27.24;100427.97;4998545;28;20037;-76
2021/08/20 10:54:41;;;;;;;3.90;2.60;;;;;;;29.98;27.82;100454.38;5026249;28;20033;-71
2021/08/20 10:57:10;;;;;;;5.95;2.47;;;;;;;30.21;27.07;100428.50;5029100;28;20038;-70
2021/08/20 10:59:35;;;;;;;3.28;2.20;;;;;;;30.46;26.15;100415.78;5029700;28;20060;-69
2021/08/20 11:02:19;;;;;;;6.10;2.75;;;;;;;30.75;26.56;100440.22;5029950;28;20569;-70
2021/08/20 11:05:10;;;;;;;7.28;2.88;;;;;;;30.77;28.99;100435.69;5029339;28;20073;-70
2021/08/20 11:07:36;;;;;;;4.50;2.50;;;;;;;31.18;29.33;100445.31;5028752;28;20112;-71
2021/08/20 11:10:07;;;;;;;3.72;2.90;;;;;;;31.36;27.78;100440.84;5029241;28;20120;-70
2021/08/20 11:12:56;;;;;;;3.22;2.47;;;;;;;31.20;27.22;100432.72;5020666;28;20062;-71
2021/08/20 11:15:22;;;;;;;6.15;2.90;;;;;;;30.84;26.96;100424.72;5018478;28;20037;-70
2021/08/20 11:18:05;;;;;;;5.78;3.28;;;;;;;30.80;28.64;100421.34;5027308;28;20103;-69
2021/08/20 11:20:33;;;;;;;4.97;2.97;;;;;;;31.07;24.73;100394.31;5029583;28;20037;-68
2021/08/20 11:23:09;;;;;;;;;;;;;;;30.95;25.47;100417.06;5026772;28;20026;-69
2021/08/20 11:25:41;;;;;;;4.05;2.75;;;;;;;31.04;26.19;100413.09;5023540;28;19924;-69